createdAt,value
2018-01-20T00:00:13.190Z,88.72
2018-01-20T00:01:23.258Z,89
2018-01-20T00:02:33.053Z,88.72
2018-01-20T00:03:43.100Z,88.62
2018-01-20T00:04:52.895Z,88.72
2018-01-20T00:06:02.954Z,88.81
2018-01-20T00:07:13.031Z,88.43
2018-01-20T00:08:23.106Z,88.53
2018-01-20T00:09:33.192Z,88.62
2018-01-20T00:10:43.261Z,88.62
2018-01-20T00:11:53.319Z,88.43
2018-01-20T00:13:03.443Z,88.62
2018-01-20T00:14:13.500Z,88.62
2018-01-20T00:15:24.987Z,88.53
2018-01-20T00:16:35.045Z,88.53
2018-01-20T00:17:45.100Z,88.43
2018-01-20T00:18:56.409Z,88.81
2018-01-20T00:20:06.462Z,88.43
2018-01-20T00:21:16.512Z,88.62
2018-01-20T00:22:26.343Z,88.43
2018-01-20T00:23:36.127Z,88.81
2018-01-20T00:24:46.168Z,88.91
2018-01-20T00:25:56.247Z,89
2018-01-20T00:27:08.265Z,88.91
2018-01-20T00:28:18.328Z,88.81
2018-01-20T00:29:28.405Z,88.81
2018-01-20T00:30:38.472Z,88.81
2018-01-20T00:31:48.591Z,88.81
2018-01-20T00:32:58.658Z,88.72
2018-01-20T00:34:08.456Z,89
2018-01-20T00:35:18.525Z,88.72
2018-01-20T00:36:28.613Z,88.72
2018-01-20T00:37:39.599Z,88.72
2018-01-20T00:38:49.411Z,88.53
2018-01-20T00:39:59.489Z,88.53
2018-01-20T00:41:09.289Z,88.53
2018-01-20T00:42:19.355Z,88.34
2018-01-20T00:43:29.432Z,88.72
2018-01-20T00:44:39.501Z,88.72
2018-01-20T00:45:49.551Z,88.72
2018-01-20T00:47:00.269Z,88.72
2018-01-20T00:48:10.069Z,88.62
2018-01-20T00:49:19.944Z,88.58
2018-01-20T00:50:30.028Z,88.62
2018-01-20T00:51:39.852Z,88.72
2018-01-20T00:52:49.911Z,88.96
2018-01-20T00:53:59.696Z,88.29
2018-01-20T00:55:09.595Z,88.87
2018-01-20T00:56:19.916Z,88.87
2018-01-20T00:57:29.455Z,88.48
2018-01-20T00:58:39.504Z,88.34
2018-01-20T00:59:49.543Z,88.43
2018-01-20T01:00:59.387Z,88.77
2018-01-20T01:02:09.169Z,88.62
2018-01-20T01:03:19.241Z,88.43
2018-01-20T01:04:29.309Z,88.53
2018-01-20T01:05:39.915Z,88.72
2018-01-20T01:06:49.962Z,88.72
2018-01-20T01:07:59.723Z,88.43
2018-01-20T01:09:09.515Z,88.24
2018-01-20T01:10:19.583Z,88.24
2018-01-20T01:11:29.654Z,88.24
2018-01-20T01:12:39.703Z,88.24
2018-01-20T01:13:49.733Z,88.06
2018-01-20T01:15:00.772Z,88.34
2018-01-20T01:16:11.776Z,88.06
2018-01-20T01:17:21.558Z,88.34
2018-01-20T01:18:31.670Z,88.43
2018-01-20T01:19:41.952Z,87.87
2018-01-20T01:20:51.739Z,88.06
2018-01-20T01:22:01.668Z,88.43
2018-01-20T01:23:12.232Z,88.34
2018-01-20T01:24:22.297Z,88.29
2018-01-20T01:25:32.080Z,88.06
2018-01-20T01:26:42.127Z,87.96
2018-01-20T01:27:51.911Z,88.01
2018-01-20T01:29:01.691Z,88.01
2018-01-20T01:30:11.492Z,88.1
2018-01-20T01:31:21.552Z,88.29
2018-01-20T01:32:31.601Z,88.01
2018-01-20T01:33:54.126Z,88.29
2018-01-20T01:35:03.918Z,88.29
2018-01-20T01:36:14.024Z,88.2
2018-01-20T01:37:24.082Z,88.29
2018-01-20T01:38:34.154Z,88.1
2018-01-20T01:39:44.207Z,87.82
2018-01-20T01:40:54.269Z,88.2
2018-01-20T01:42:04.315Z,88.2
2018-01-20T01:43:14.366Z,88.1
2018-01-20T01:44:24.173Z,87.73
2018-01-20T01:45:33.983Z,87.63
2018-01-20T01:46:43.773Z,87.82
2018-01-20T01:47:53.809Z,88.01
2018-01-20T01:49:03.862Z,87.63
2018-01-20T01:50:13.662Z,87.82
2018-01-20T01:51:23.718Z,87.92
2018-01-20T01:52:34.009Z,87.82
2018-01-20T01:53:44.313Z,88.01
2018-01-20T01:54:54.609Z,87.73
2018-01-20T01:56:04.418Z,87.73
2018-01-20T01:57:14.498Z,87.73
2018-01-20T01:58:23.871Z,87.73
2018-01-20T01:59:33.926Z,87.73
2018-01-20T02:00:43.979Z,87.73
2018-01-20T02:01:53.769Z,87.73
2018-01-20T02:03:03.835Z,88.01
2018-01-20T02:04:13.667Z,87.92
2018-01-20T02:05:23.747Z,88.01
2018-01-20T02:06:33.821Z,87.45
2018-01-20T02:07:43.869Z,87.63
2018-01-20T02:08:53.911Z,87.73
2018-01-20T02:10:03.759Z,87.82
2018-01-20T02:11:13.829Z,87.54
2018-01-20T02:12:23.880Z,87.63
2018-01-20T02:13:33.940Z,87.92
2018-01-20T02:14:44.009Z,87.73
2018-01-20T02:15:53.793Z,87.35
2018-01-20T02:17:03.849Z,87.35
2018-01-20T02:18:13.647Z,87.54
2018-01-20T02:19:23.707Z,87.45
2018-01-20T02:20:33.759Z,87.54
2018-01-20T02:21:43.860Z,87.35
2018-01-20T02:22:53.644Z,87.16
2018-01-20T02:24:03.168Z,87.35
2018-01-20T02:25:13.197Z,87.54
2018-01-20T02:26:23.292Z,87.73
2018-01-20T02:27:33.357Z,87.54
2018-01-20T02:28:43.412Z,87.25
2018-01-20T02:29:53.451Z,87.45
2018-01-20T02:31:03.224Z,87.45
2018-01-20T02:32:13.017Z,87.63
2018-01-20T02:33:23.146Z,87.63
2018-01-20T02:34:33.284Z,87.45
2018-01-20T02:35:43.330Z,87.16
2018-01-20T02:36:53.386Z,87.35
2018-01-20T02:38:03.438Z,87.35
2018-01-20T02:39:13.498Z,87.45
2018-01-20T02:40:23.569Z,87.63
2018-01-20T02:41:33.101Z,87.73
2018-01-20T02:42:43.150Z,87.63
2018-01-20T02:43:52.929Z,87.73
2018-01-20T02:45:02.980Z,87.63
2018-01-20T02:46:13.026Z,87.73
2018-01-20T02:47:23.073Z,87.73
2018-01-20T02:48:32.864Z,87.92
2018-01-20T02:49:42.911Z,87.54
2018-01-20T02:50:53.000Z,87.45
2018-01-20T02:52:03.066Z,87.54
2018-01-20T02:53:13.135Z,87.25
2018-01-20T02:54:23.208Z,87.25
2018-01-20T02:55:33.003Z,87.54
2018-01-20T02:56:42.807Z,87.45
2018-01-20T02:57:52.860Z,87.54
2018-01-20T02:59:02.627Z,87.45
2018-01-20T03:00:12.662Z,87.63
2018-01-20T03:01:22.698Z,87.54
2018-01-20T03:02:32.727Z,87.54
2018-01-20T03:34:11.933Z,83.1
2018-01-20T03:35:21.984Z,84.05
2018-01-20T03:36:32.027Z,85.38
2018-01-20T03:37:41.813Z,86.13
2018-01-20T03:38:51.640Z,86.79
2018-01-20T03:40:01.726Z,87.17
2018-01-20T03:41:11.765Z,88.31
2018-01-20T03:42:21.802Z,88.35
2018-01-20T03:43:31.832Z,88.73
2018-01-20T03:44:41.349Z,88.92
2018-01-20T03:45:51.450Z,89.11
2018-01-20T03:47:01.224Z,89.11
2018-01-20T03:48:11.277Z,89.15
2018-01-20T03:49:21.318Z,89.25
2018-01-20T03:50:31.109Z,88.78
2018-01-20T03:51:41.171Z,88.68
2018-01-20T03:52:50.968Z,88.96
2018-01-20T03:54:01.015Z,88.63
2018-01-20T03:55:10.784Z,88.44
2018-01-20T03:56:20.568Z,88.73
2018-01-20T03:57:30.413Z,88.16
2018-01-20T03:58:40.456Z,88.35
2018-01-20T03:59:50.506Z,87.92
2018-01-20T04:01:00.320Z,88.29
2018-01-20T04:02:10.356Z,87.82
2018-01-20T04:03:20.463Z,87.92
2018-01-20T04:04:30.518Z,87.82
2018-01-20T04:05:40.569Z,87.63
2018-01-20T04:06:50.634Z,87.73
2018-01-20T04:08:00.682Z,87.82
2018-01-20T04:09:10.782Z,87.63
2018-01-20T04:10:20.828Z,88.01
2018-01-20T04:11:30.615Z,87.92
2018-01-20T04:12:40.686Z,87.82
2018-01-20T04:13:50.728Z,87.87
2018-01-20T04:15:00.567Z,88.1
2018-01-20T04:16:10.361Z,87.73
2018-01-20T04:17:20.419Z,87.77
2018-01-20T04:18:30.190Z,87.73
2018-01-20T04:19:40.228Z,87.68
2018-01-20T04:20:50.029Z,87.77
2018-01-20T04:21:59.301Z,87.87
2018-01-20T04:23:09.338Z,87.87
2018-01-20T04:24:19.114Z,87.82
2018-01-20T04:25:29.155Z,88.24
2018-01-20T04:26:39.202Z,87.77
2018-01-20T04:27:49.263Z,88.34
2018-01-20T04:28:59.295Z,88.34
2018-01-20T04:30:09.333Z,88.34
2018-01-20T04:31:18.867Z,87.96
2018-01-20T04:32:28.931Z,88.53
2018-01-20T04:33:38.714Z,88.34
2018-01-20T04:34:48.502Z,87.96
2018-01-20T04:35:58.267Z,87.96
2018-01-20T04:37:08.058Z,88.43
2018-01-20T04:38:17.588Z,88.34
2018-01-20T04:39:27.626Z,88.24
2018-01-20T04:40:37.657Z,88.34
2018-01-20T04:41:47.457Z,88.53
2018-01-20T04:42:57.544Z,88.62
2018-01-20T04:44:07.634Z,88.72
2018-01-20T04:45:17.705Z,88.72
2018-01-20T04:46:27.491Z,88.91
2018-01-20T04:47:37.918Z,88.81
2018-01-20T04:48:47.975Z,88.72
2018-01-20T04:49:57.757Z,88.81
2018-01-20T04:51:07.811Z,88.43
2018-01-20T04:52:17.857Z,88.81
2018-01-20T04:53:27.631Z,88.72
2018-01-20T04:54:36.890Z,88.91
2018-01-20T04:55:46.933Z,88.58
2018-01-20T04:56:56.996Z,88.34
2018-01-20T04:58:07.035Z,88.72
2018-01-20T04:59:16.821Z,88.29
2018-01-20T05:00:26.860Z,88.39
2018-01-20T05:01:36.942Z,88.39
2018-01-20T05:02:46.988Z,88.68
2018-01-20T05:03:57.055Z,88.68
2018-01-20T05:05:07.105Z,88.68
2018-01-20T05:06:17.161Z,88.58
2018-01-20T05:07:27.238Z,88.29
2018-01-20T05:08:37.303Z,88.29
2018-01-20T05:09:47.350Z,88.39
2018-01-20T05:10:57.383Z,88.01
2018-01-20T05:12:06.905Z,88.29
2018-01-20T05:13:16.432Z,88.68
2018-01-20T05:14:26.474Z,88.39
2018-01-20T05:15:36.518Z,88.48
2018-01-20T05:16:46.283Z,88.2
2018-01-20T05:17:56.056Z,88.58
2018-01-20T05:19:06.120Z,88.68
2018-01-20T05:20:16.174Z,88.39
2018-01-20T05:21:25.966Z,88.2
2018-01-20T05:22:36.065Z,88.48
2018-01-20T05:23:46.109Z,88.48
2018-01-20T05:24:56.195Z,88.48
2018-01-20T05:26:06.245Z,88.48
2018-01-20T05:27:16.288Z,88.01
2018-01-20T05:28:26.326Z,88.39
2018-01-20T05:29:36.369Z,88.1
2018-01-20T05:30:46.408Z,87.82
2018-01-20T05:31:56.190Z,88.2
2018-01-20T05:33:06.244Z,88.01
2018-01-20T05:34:16.044Z,88.06
2018-01-20T05:35:26.104Z,88.06
2018-01-20T05:36:36.152Z,88.39
2018-01-20T05:37:47.085Z,88.1
2018-01-20T05:38:56.873Z,87.82
2018-01-20T05:40:06.923Z,88.01
2018-01-20T05:41:16.963Z,88.29
2018-01-20T05:42:27.132Z,87.63
2018-01-20T05:43:37.164Z,87.82
2018-01-20T05:44:47.200Z,88.01
2018-01-20T05:45:56.980Z,88.01
2018-01-20T05:47:07.028Z,87.92
2018-01-20T05:48:17.111Z,87.35
2018-01-20T05:49:27.152Z,87.73
2018-01-20T05:50:37.200Z,87.73
2018-01-20T05:51:47.247Z,87.25
2018-01-20T05:52:57.297Z,87.45
2018-01-20T05:54:06.819Z,87.73
2018-01-20T05:55:16.597Z,87.73
2018-01-20T05:56:26.647Z,87.73
2018-01-20T05:57:36.688Z,87.63
2018-01-20T05:58:46.211Z,87.73
2018-01-20T05:59:56.002Z,87.73
2018-01-20T06:01:05.527Z,87.63
2018-01-20T06:02:15.045Z,87.63
2018-01-20T06:03:25.102Z,87.45
2018-01-20T06:04:35.154Z,87.54
2018-01-20T06:05:46.301Z,87.54
2018-01-20T06:06:56.099Z,88.01
2018-01-20T06:08:06.148Z,87.82
2018-01-20T06:09:15.931Z,87.92
2018-01-20T06:10:25.975Z,87.82
2018-01-20T06:11:35.756Z,88.01
2018-01-20T06:12:45.801Z,87.82
2018-01-20T06:13:55.335Z,87.82
2018-01-20T06:15:05.380Z,87.73
2018-01-20T06:16:15.418Z,87.92
2018-01-20T06:17:25.469Z,87.73
2018-01-20T06:18:35.511Z,88.01
2018-01-20T06:19:45.597Z,87.82
2018-01-20T06:20:55.646Z,88.1
2018-01-20T06:22:05.447Z,88.29
2018-01-20T06:23:15.027Z,88.1
2018-01-20T06:24:24.804Z,88.48
2018-01-20T06:25:34.861Z,87.73
2018-01-20T06:26:44.657Z,88.48
2018-01-20T06:27:54.723Z,88.48
2018-01-20T06:29:04.782Z,88.1
2018-01-20T06:30:14.835Z,88.1
2018-01-20T06:31:24.881Z,88.39
2018-01-20T06:32:34.658Z,88.2
2018-01-20T06:33:44.504Z,88.2
2018-01-20T06:34:54.601Z,88.39
2018-01-20T06:36:04.658Z,87.82
2018-01-20T06:37:14.451Z,88.16
2018-01-20T06:38:24.497Z,87.97
2018-01-20T06:39:34.548Z,88.01
2018-01-20T06:40:44.603Z,87.97
2018-01-20T06:41:54.375Z,88.25
2018-01-20T06:43:04.177Z,88.25
2018-01-20T06:44:14.239Z,88.25
2018-01-20T06:45:24.284Z,87.77
2018-01-20T06:46:33.858Z,88.29
2018-01-20T06:47:43.909Z,87.77
2018-01-20T06:48:53.957Z,88.01
2018-01-20T06:50:03.753Z,87.59
2018-01-20T06:51:13.786Z,87.77
2018-01-20T06:52:23.896Z,87.82
2018-01-20T06:53:33.682Z,87.73
2018-01-20T06:54:43.734Z,87.63
2018-01-20T06:55:53.768Z,87.54
2018-01-20T06:57:03.574Z,87.63
2018-01-20T06:58:13.672Z,87.63
2018-01-20T06:59:23.464Z,87.45
2018-01-20T07:00:33.245Z,87.63
2018-01-20T07:01:43.037Z,87.45
2018-01-20T07:02:52.828Z,87.45
2018-01-20T07:04:02.933Z,87.35
2018-01-20T07:05:12.993Z,87.35
2018-01-20T07:06:23.028Z,87.35
2018-01-20T07:07:33.075Z,87.54
2018-01-20T07:08:42.857Z,87.54
2018-01-20T07:09:52.973Z,87.25
2018-01-20T07:11:03.097Z,87.54
2018-01-20T07:12:13.151Z,87.54
2018-01-20T07:13:23.206Z,87.35
2018-01-20T07:14:33.265Z,87.54
2018-01-20T07:15:43.358Z,87.92
2018-01-20T07:16:53.429Z,87.82
2018-01-20T07:18:03.481Z,87.45
2018-01-20T07:19:13.547Z,87.92
2018-01-20T07:20:23.352Z,88.01
2018-01-20T07:21:33.142Z,87.82
2018-01-20T07:22:43.178Z,87.63
2018-01-20T07:23:52.973Z,87.73
2018-01-20T07:25:03.021Z,87.63
2018-01-20T07:26:12.808Z,87.35
2018-01-20T07:27:22.970Z,87.54
2018-01-20T07:28:33.022Z,87.06
2018-01-20T07:29:43.068Z,87.16
2018-01-20T07:30:52.941Z,86.87
2018-01-20T07:32:02.729Z,86.87
2018-01-20T07:33:12.571Z,87.16
2018-01-20T07:34:22.624Z,86.68
2018-01-20T07:35:32.666Z,86.78
2018-01-20T07:36:42.466Z,86.78
2018-01-20T07:37:52.537Z,86.78
2018-01-20T07:39:02.669Z,86.44
2018-01-20T07:40:12.718Z,87.01
2018-01-20T07:41:22.762Z,86.72
2018-01-20T07:42:32.023Z,86.25
2018-01-20T07:43:41.831Z,86.44
2018-01-20T07:44:51.940Z,86.35
2018-01-20T07:46:01.988Z,86.25
2018-01-20T07:47:12.045Z,86.16
2018-01-20T07:48:22.149Z,86.54
2018-01-20T07:49:31.940Z,86.82
2018-01-20T07:50:42.040Z,86.87
2018-01-20T07:51:52.099Z,86.63
2018-01-20T07:53:01.901Z,86.82
2018-01-20T07:54:12.003Z,87.11
2018-01-20T07:55:21.798Z,87.01
2018-01-20T07:56:31.837Z,87.2
2018-01-20T07:57:41.900Z,87.11
2018-01-20T07:58:51.677Z,87.39
2018-01-20T08:00:00.954Z,86.49
2018-01-20T08:01:12.803Z,86.3
2018-01-20T08:02:22.635Z,86.3
2018-01-20T08:03:32.420Z,86.49
2018-01-20T08:04:42.464Z,86.58
2018-01-20T08:05:52.514Z,86.87
2018-01-20T08:07:02.569Z,86.87
2018-01-20T08:08:12.381Z,86.58
2018-01-20T08:09:22.438Z,87.05
2018-01-20T08:10:31.980Z,86.2
2018-01-20T08:11:41.777Z,86.49
2018-01-20T08:12:51.828Z,86.87
2018-01-20T08:14:01.680Z,86.87
2018-01-20T08:15:11.491Z,86.77
2018-01-20T08:16:21.330Z,86.2
2018-01-20T08:17:31.390Z,86.24
2018-01-20T08:18:41.448Z,86.24
2018-01-20T08:19:51.225Z,86.15
2018-01-20T08:21:01.272Z,86.24
2018-01-20T08:22:11.341Z,86.24
2018-01-20T08:23:21.395Z,86.43
2018-01-20T08:24:31.467Z,86.43
2018-01-20T08:25:41.626Z,86.53
2018-01-20T08:26:51.722Z,86.24
2018-01-20T08:28:01.771Z,86.34
2018-01-20T08:29:11.813Z,86.34
2018-01-20T08:30:21.849Z,86.43
2018-01-20T08:31:31.970Z,86.19
2018-01-20T08:32:41.759Z,86.29
2018-01-20T08:33:51.539Z,86.24
2018-01-20T08:35:01.335Z,86.47
2018-01-20T08:36:11.131Z,86.29
2018-01-20T08:37:21.301Z,86.29
2018-01-20T08:38:31.602Z,86.38
2018-01-20T08:39:41.731Z,86.38
2018-01-20T08:40:51.548Z,86.47
2018-01-20T08:42:01.622Z,86.47
2018-01-20T08:43:11.159Z,86.47
2018-01-20T08:44:21.221Z,86.47
2018-01-20T08:45:31.273Z,86.38
2018-01-20T08:46:41.320Z,86.47
2018-01-20T08:47:51.123Z,86.47
2018-01-20T08:49:01.287Z,86.29
2018-01-20T08:50:11.093Z,86.47
2018-01-20T08:51:20.640Z,86.33
2018-01-20T08:52:30.699Z,86.57
2018-01-20T08:53:40.493Z,87.14
2018-01-20T08:54:50.581Z,87.43
2018-01-20T08:56:00.930Z,87.52
2018-01-20T08:57:11.859Z,87.34
2018-01-20T08:58:21.686Z,87.52
2018-01-20T08:59:31.773Z,87.14
2018-01-20T09:00:42.604Z,86.67
2018-01-20T09:01:52.727Z,86.61
2018-01-20T09:03:02.539Z,86.33
2018-01-20T09:04:12.351Z,86.43
2018-01-20T09:05:22.145Z,86.43
2018-01-20T09:06:32.194Z,86.52
2018-01-20T09:07:41.982Z,86.61
2018-01-20T09:08:52.033Z,86.71
2018-01-20T09:10:02.090Z,87.34
2018-01-20T09:11:13.162Z,88
2018-01-20T09:12:22.959Z,88.19
2018-01-20T09:13:33.016Z,88.09
2018-01-20T09:14:43.085Z,87.62
2018-01-20T09:15:53.136Z,87.9
2018-01-20T09:17:02.930Z,87.28
2018-01-20T09:18:13.032Z,86.9
2018-01-20T09:19:23.068Z,86.8
2018-01-20T09:20:32.861Z,86.61
2018-01-20T09:21:42.917Z,86.57
2018-01-20T09:22:52.970Z,86.38
2018-01-20T09:24:02.803Z,86.18
2018-01-20T09:25:12.975Z,86.09
2018-01-20T09:26:22.761Z,86.09
2018-01-20T09:27:32.555Z,85.75
2018-01-20T09:28:41.844Z,85.85
2018-01-20T09:29:51.981Z,85.56
2018-01-20T09:31:02.046Z,85.66
2018-01-20T09:32:13.475Z,85.22
2018-01-20T09:33:23.254Z,85.22
2018-01-20T09:34:33.304Z,85.03
2018-01-20T09:35:43.364Z,85.03
2018-01-20T09:36:53.420Z,84.88
2018-01-20T09:38:03.462Z,85.08
2018-01-20T09:39:13.523Z,85.08
2018-01-20T09:40:23.556Z,85.08
2018-01-20T09:41:33.630Z,85.08
2018-01-20T09:42:43.705Z,85.08
2018-01-20T09:43:53.809Z,85.08
2018-01-20T09:45:03.880Z,85.08
2018-01-20T09:46:13.925Z,84.98
2018-01-20T09:47:24.031Z,85.36
2018-01-20T09:48:34.084Z,85.74
2018-01-20T09:49:44.131Z,85.55
2018-01-20T09:50:54.190Z,85.6
2018-01-20T09:52:04.249Z,85.69
2018-01-20T09:53:14.027Z,85.93
2018-01-20T09:54:25.240Z,86.03
2018-01-20T09:55:35.292Z,85.88
2018-01-20T09:56:45.389Z,86.12
2018-01-20T09:57:55.185Z,85.97
2018-01-20T09:59:05.240Z,86.16
2018-01-20T10:00:15.305Z,86.26
2018-01-20T10:01:26.036Z,85.69
2018-01-20T10:02:35.831Z,86.32
2018-01-20T10:03:45.872Z,86.12
2018-01-20T10:04:55.994Z,86.07
2018-01-20T10:06:05.833Z,85.97
2018-01-20T10:07:15.914Z,85.78
2018-01-20T10:08:25.976Z,85.78
2018-01-20T10:09:36.029Z,85.6
2018-01-20T10:10:46.177Z,85.88
2018-01-20T10:11:55.696Z,85.69
2018-01-20T10:13:05.749Z,85.25
2018-01-20T10:14:15.810Z,85.45
2018-01-20T10:15:25.699Z,85.73
2018-01-20T10:16:35.567Z,85.25
2018-01-20T10:17:45.104Z,85.16
2018-01-20T10:18:55.177Z,85.25
2018-01-20T10:20:05.239Z,84.97
2018-01-20T10:21:15.049Z,85.16
2018-01-20T10:22:24.634Z,85.06
2018-01-20T10:23:34.429Z,85.25
2018-01-20T10:24:44.217Z,85.25
2018-01-20T10:25:54.334Z,84.97
2018-01-20T10:27:04.429Z,85.06
2018-01-20T10:28:14.494Z,85.49
2018-01-20T10:29:24.553Z,85.3
2018-01-20T10:30:34.360Z,85.49
2018-01-20T10:31:44.423Z,85.49
2018-01-20T10:32:54.475Z,85.11
2018-01-20T10:34:04.546Z,85.77
2018-01-20T10:35:14.605Z,85.87
2018-01-20T10:36:24.395Z,85.77
2018-01-20T10:37:34.176Z,85.58
2018-01-20T10:38:43.970Z,85.87
2018-01-20T10:39:53.835Z,86.16
2018-01-20T10:41:03.901Z,85.77
2018-01-20T10:42:13.969Z,85.68
2018-01-20T10:43:24.049Z,85.87
2018-01-20T10:44:34.144Z,86.25
2018-01-20T10:45:44.284Z,87.11
2018-01-20T10:46:54.353Z,87.45
2018-01-20T10:48:03.946Z,88.12
2018-01-20T10:49:14.028Z,87.88
2018-01-20T10:50:24.123Z,88.02
2018-01-20T10:51:34.007Z,88.21
2018-01-20T10:52:44.083Z,87.45
2018-01-20T10:53:54.213Z,87.93
2018-01-20T10:55:04.294Z,87.64
2018-01-20T10:56:14.355Z,87.07
2018-01-20T10:57:24.224Z,86.63
2018-01-20T10:58:34.293Z,86.82
2018-01-20T10:59:44.108Z,86.63
2018-01-20T11:00:54.158Z,86.63
2018-01-20T11:02:04.219Z,86.4
2018-01-20T11:03:14.286Z,86.25
2018-01-20T11:04:24.363Z,86.63
2018-01-20T11:05:34.425Z,87.11
2018-01-20T11:06:44.221Z,86.98
2018-01-20T11:07:54.282Z,87.26
2018-01-20T11:09:04.141Z,87.45
2018-01-20T11:10:14.211Z,87.07
2018-01-20T11:11:24.282Z,87.35
2018-01-20T11:12:33.824Z,87.45
2018-01-20T11:13:43.886Z,87.74
2018-01-20T11:14:54.009Z,86.98
2018-01-20T11:16:04.122Z,87.54
2018-01-20T11:17:14.167Z,87.45
2018-01-20T11:18:24.219Z,87.45
2018-01-20T11:19:34.351Z,87.98
2018-01-20T11:20:44.411Z,88.36
2018-01-20T11:21:54.488Z,88.07
2018-01-20T11:23:04.298Z,87.98
2018-01-20T11:24:14.411Z,87.6
2018-01-20T11:25:24.484Z,88.55
2018-01-20T11:26:35.734Z,88.17
2018-01-20T11:27:45.542Z,88.36
2018-01-20T11:28:55.322Z,88.03
2018-01-20T11:30:05.405Z,88.03
2018-01-20T11:31:15.471Z,88.45
2018-01-20T11:32:25.604Z,88.17
2018-01-20T11:33:35.682Z,88.17
2018-01-20T11:34:45.725Z,87.88
2018-01-20T11:35:55.792Z,87.6
2018-01-20T11:37:05.852Z,87.69
2018-01-20T11:38:16.639Z,87.6
2018-01-20T11:39:26.240Z,87.4
2018-01-20T11:40:36.292Z,86.83
2018-01-20T11:41:46.097Z,87.4
2018-01-20T11:42:56.149Z,87.12
2018-01-20T11:44:06.015Z,86.45
2018-01-20T11:45:16.061Z,86.83
2018-01-20T11:46:25.885Z,86.93
2018-01-20T11:47:35.953Z,87.02
2018-01-20T11:48:46.011Z,87.69
2018-01-20T11:49:56.130Z,87.21
2018-01-20T11:51:06.179Z,87.6
2018-01-20T11:52:15.999Z,87.6
2018-01-20T11:53:26.090Z,87.5
2018-01-20T11:54:35.641Z,87.4
2018-01-20T11:55:45.825Z,86.83
2018-01-20T11:56:55.621Z,87.26
2018-01-20T11:58:05.197Z,86.98
2018-01-20T11:59:15.277Z,86.98
2018-01-20T12:00:25.335Z,86.69
2018-01-20T12:01:35.405Z,87.16
2018-01-20T12:02:45.475Z,87.64
2018-01-20T12:03:55.534Z,87.35
2018-01-20T12:05:05.656Z,87.64
2018-01-20T12:06:15.735Z,87.74
2018-01-20T12:07:26.953Z,87.64
2018-01-20T12:08:37.006Z,87.35
2018-01-20T12:09:47.427Z,87.16
2018-01-20T12:10:57.486Z,87.83
2018-01-20T12:12:08.510Z,87.6
2018-01-20T12:13:18.714Z,87.6
2018-01-20T12:14:28.767Z,87.98
2018-01-20T12:15:38.585Z,87.98
2018-01-20T12:16:48.380Z,87.98
2018-01-20T12:17:58.513Z,88.36
2018-01-20T12:19:08.641Z,87.98
2018-01-20T12:20:18.731Z,88.07
2018-01-20T12:21:28.287Z,88.45
2018-01-20T12:22:38.346Z,88.36
2018-01-20T12:23:48.244Z,88.17
2018-01-20T12:24:57.909Z,88.12
2018-01-20T12:26:07.994Z,88.07
2018-01-20T12:27:18.353Z,88.17
2018-01-20T12:28:28.462Z,88.36
2018-01-20T12:29:38.609Z,88.07
2018-01-20T12:30:48.740Z,88.07
2018-01-20T12:31:58.867Z,88.07
2018-01-20T12:33:08.475Z,88.17
2018-01-20T12:34:18.629Z,88.31
2018-01-20T12:35:28.802Z,88.12
2018-01-20T12:36:38.926Z,88.12
2018-01-20T12:37:49.020Z,88.41
2018-01-20T12:38:59.111Z,88.12
2018-01-20T12:40:09.245Z,88.41
2018-01-20T12:41:19.349Z,88.41
2018-01-20T12:42:29.423Z,88.7
2018-01-20T12:43:39.546Z,88.89
2018-01-20T12:44:49.624Z,88.89
2018-01-20T12:45:59.691Z,88.89
2018-01-20T12:47:09.477Z,88.6
2018-01-20T12:48:19.539Z,89.26
2018-01-20T12:49:29.661Z,89.17
2018-01-20T12:50:39.521Z,88.79
2018-01-20T12:51:49.585Z,88.79
2018-01-20T12:52:59.670Z,88.98
2018-01-20T12:54:10.369Z,88.89
2018-01-20T12:55:20.168Z,88.89
2018-01-20T12:56:30.300Z,88.75
2018-01-20T12:57:40.365Z,89.36
2018-01-20T12:58:50.431Z,89.17
2018-01-20T13:00:00.501Z,89.13
2018-01-20T13:01:10.544Z,89.26
2018-01-20T13:02:20.619Z,89.22
2018-01-20T13:03:30.673Z,89.03
2018-01-20T13:04:41.593Z,89.13
2018-01-20T13:05:51.417Z,89.03
2018-01-20T13:07:01.488Z,88.56
2018-01-20T13:08:11.730Z,88.84
2018-01-20T13:09:21.801Z,88.84
2018-01-20T13:10:31.983Z,89.51
2018-01-20T13:11:42.051Z,89.18
2018-01-20T13:13:06.756Z,89.84
2018-01-20T13:14:16.819Z,89.65
2018-01-20T13:15:26.897Z,89.84
2018-01-20T13:16:36.955Z,90.18
2018-01-20T13:17:47.073Z,89.8
2018-01-20T13:18:57.130Z,89.7
2018-01-20T13:20:07.208Z,90.08
2018-01-20T13:21:16.743Z,89.8
2018-01-20T13:22:26.796Z,89.32
2018-01-20T13:23:36.896Z,89.14
2018-01-20T13:24:47.578Z,89.32
2018-01-20T13:25:57.386Z,88.85
2018-01-20T13:27:07.489Z,88.94
2018-01-20T13:28:17.540Z,88.75
2018-01-20T13:29:27.356Z,88.75
2018-01-20T13:30:38.372Z,88.75
2018-01-20T13:31:48.415Z,88.28
2018-01-20T13:32:58.238Z,88.75
2018-01-20T13:34:09.390Z,88.85
2018-01-20T13:35:19.463Z,88.94
2018-01-20T13:36:29.531Z,88.85
2018-01-20T13:37:39.634Z,88.94
2018-01-20T13:38:49.713Z,88.94
2018-01-20T13:39:59.525Z,88.28
2018-01-20T13:41:09.587Z,88.37
2018-01-20T13:42:19.391Z,88.28
2018-01-20T13:43:28.936Z,88.18
2018-01-20T13:44:38.994Z,88.37
2018-01-20T13:45:51.415Z,88.37
2018-01-20T13:47:01.467Z,88.37
2018-01-20T13:48:11.264Z,87.99
2018-01-20T13:49:21.335Z,88.09
2018-01-20T13:50:31.398Z,87.61
2018-01-20T13:51:41.248Z,88.09
2018-01-20T13:52:51.444Z,87.9
2018-01-20T13:54:01.512Z,87.71
2018-01-20T13:55:11.303Z,87.71
2018-01-20T13:56:20.866Z,87.99
2018-01-20T13:57:30.909Z,87.99
2018-01-20T13:58:41.014Z,87.52
2018-01-20T13:59:51.072Z,87.71
2018-01-20T14:01:01.127Z,87.61
2018-01-20T14:02:11.196Z,87.8
2018-01-20T14:03:21.001Z,87.71
2018-01-20T14:04:30.822Z,87.99
2018-01-20T14:05:40.874Z,88.28
2018-01-20T14:06:50.650Z,87.9
2018-01-20T14:08:00.438Z,88.37
2018-01-20T14:09:10.483Z,88.28
2018-01-20T14:10:20.598Z,88.09
2018-01-20T14:11:30.664Z,88.09
2018-01-20T14:12:40.750Z,88.09
2018-01-20T14:13:50.810Z,87.42
2018-01-20T14:15:00.878Z,87.75
2018-01-20T14:16:10.960Z,87.46
2018-01-20T14:17:21.033Z,87.37
2018-01-20T14:18:31.138Z,87.56
2018-01-20T14:19:41.189Z,87.08
2018-01-20T14:20:51.265Z,86.61
2018-01-20T14:22:01.485Z,86.8
2018-01-20T14:23:11.555Z,86.46
2018-01-20T14:24:21.611Z,86.36
2018-01-20T14:25:31.136Z,86.75
2018-01-20T14:26:41.189Z,87.13
2018-01-20T14:27:51.327Z,86.75
2018-01-20T14:29:01.392Z,87.51
2018-01-20T14:30:11.491Z,87.23
2018-01-20T14:31:21.566Z,87.6
2018-01-20T14:32:31.642Z,87.94
2018-01-20T14:33:41.795Z,87.94
2018-01-20T14:34:51.873Z,88.13
2018-01-20T14:36:02.364Z,88.04
2018-01-20T14:37:12.444Z,88.23
2018-01-20T14:38:22.511Z,88.13
2018-01-20T14:39:32.633Z,88.51
2018-01-20T14:40:42.456Z,88.32
2018-01-20T14:41:52.549Z,88.56
2018-01-20T14:43:02.587Z,88.42
2018-01-20T14:44:12.396Z,88.66
2018-01-20T14:45:22.505Z,88.23
2018-01-20T14:46:32.572Z,88.37
2018-01-20T14:47:42.637Z,88.18
2018-01-20T14:48:52.705Z,88.37
2018-01-20T14:50:02.777Z,88.09
2018-01-20T14:51:12.833Z,88.18
2018-01-20T14:52:23.292Z,88.56
2018-01-20T14:53:33.097Z,88.46
2018-01-20T14:54:43.593Z,88.66
2018-01-20T14:55:54.492Z,88.85
2018-01-20T14:57:04.611Z,88.66
2018-01-20T14:58:13.896Z,88.94
2018-01-20T14:59:23.701Z,89.14
2018-01-20T15:00:35.329Z,88.94
2018-01-20T15:01:45.399Z,88.85
2018-01-20T15:02:55.506Z,88.94
2018-01-20T15:04:05.575Z,88.9
2018-01-20T15:05:15.613Z,88.8
2018-01-20T15:06:25.688Z,88.61
2018-01-20T15:07:35.764Z,88.9
2018-01-20T15:08:45.850Z,88.9
2018-01-20T15:09:55.915Z,88.9
2018-01-20T15:11:05.977Z,88.9
2018-01-20T15:12:16.060Z,88.71
2018-01-20T15:13:25.874Z,88.52
2018-01-20T15:14:35.963Z,88.9
2018-01-20T15:15:46.982Z,88.52
2018-01-20T15:16:57.051Z,88.52
2018-01-20T15:18:07.099Z,88.9
2018-01-20T15:19:17.162Z,89.37
2018-01-20T15:20:27.289Z,88.9
2018-01-20T15:21:36.835Z,88.71
2018-01-20T15:22:46.897Z,89.28
2018-01-20T15:23:56.693Z,89.28
2018-01-20T15:25:06.498Z,89.04
2018-01-20T15:26:16.566Z,89
2018-01-20T15:27:26.366Z,89.04
2018-01-20T15:28:36.415Z,89.04
2018-01-20T15:29:46.518Z,89.23
2018-01-20T15:30:56.313Z,89.23
2018-01-20T15:32:06.425Z,89.14
2018-01-20T15:33:16.208Z,89.14
2018-01-20T15:34:26.018Z,89.23
2018-01-20T15:35:36.826Z,88.76